Time;durP1;ratioP1;P1;durP2;ratioP2;P2;SDS_P1;SDS_P2;PMS_P1;PMS_P2;Temp;Humidity;BMP_temperature;BMP_pressure;BME280_temperature;BME280_humidity;BME280_pressure;Samples;Min_cycle;Max_cycle;Signal;HPM_P1;HPM_P2
2022/05/08 00:02:25;;;;;;;8.55;3.85;;;;;;;11.48;100.00;101581.69;6032135;29;20037;-91
2022/05/08 00:05:27;;;;;;;10.52;4.20;;;;;;;11.23;100.00;101584.19;6031159;29;20056;-91
2022/05/08 00:08:29;;;;;;;10.50;4.22;;;;;;;11.15;100.00;101589.88;6027866;29;20419;-91
2022/05/08 00:11:31;;;;;;;17.65;3.97;;;;;;;11.15;100.00;101595.88;6024938;29;20046;-91
2022/05/08 00:14:32;;;;;;;11.30;4.72;;;;;;;10.93;100.00;101593.84;6030059;29;20046;-91
2022/05/08 00:17:34;;;;;;;14.00;3.50;;;;;;;10.89;100.00;101599.31;6023835;29;20667;-91
2022/05/08 00:20:39;;;;;;;14.60;3.60;;;;;;;10.59;100.00;101591.69;6010603;29;20052;-92
2022/05/08 00:23:41;;;;;;;11.95;3.83;;;;;;;10.48;100.00;101600.97;6033967;29;20185;-91
2022/05/08 00:26:43;;;;;;;10.65;3.75;;;;;;;10.49;100.00;101602.63;6027105;29;20057;-92
2022/05/08 00:29:45;;;;;;;13.60;4.07;;;;;;;10.43;100.00;101602.16;6025546;29;20068;-91
2022/05/08 00:32:46;;;;;;;13.48;3.33;;;;;;;10.35;100.00;101607.78;6013206;29;20042;-91
2022/05/08 00:35:48;;;;;;;13.70;3.72;;;;;;;10.35;100.00;101598.28;6030162;29;20068;-91
2022/05/08 00:38:50;;;;;;;15.65;3.80;;;;;;;10.41;100.00;101606.59;6019322;29;20038;-91
2022/05/08 00:41:52;;;;;;;15.23;4.00;;;;;;;10.31;100.00;101611.47;6029204;29;20132;-91
2022/05/08 00:44:53;;;;;;;16.60;3.42;;;;;;;10.32;100.00;101614.00;6020167;29;20269;-91
2022/05/08 00:48:00;;;;;;;13.45;3.38;;;;;;;10.28;100.00;101609.09;6027373;29;20143;-91
2022/05/08 00:51:05;;;;;;;17.63;3.78;;;;;;;10.23;100.00;101611.91;6032540;29;20049;-91
2022/05/08 00:54:08;;;;;;;15.52;3.95;;;;;;;10.23;100.00;101611.91;6040196;29;20542;-91
2022/05/08 00:57:10;;;;;;;10.35;3.30;;;;;;;10.02;100.00;101605.44;6036524;29;20075;-92
2022/05/08 01:00:13;;;;;;;15.90;3.65;;;;;;;9.91;100.00;101609.50;6025015;29;20045;-91
2022/05/08 01:03:15;;;;;;;10.63;3.45;;;;;;;10.04;100.00;101611.38;6024797;29;20041;-91
2022/05/08 01:06:18;;;;;;;16.40;3.83;;;;;;;9.69;100.00;101617.69;6022932;29;20720;-91
2022/05/08 01:09:19;;;;;;;14.18;3.70;;;;;;;9.34;100.00;101609.34;6030462;29;20041;-91
2022/05/08 01:12:24;;;;;;;16.20;4.13;;;;;;;9.40;100.00;101613.34;6027801;29;20407;-91
2022/05/08 01:15:26;;;;;;;11.73;3.35;;;;;;;9.34;100.00;101622.28;6016278;29;20037;-91
2022/05/08 01:18:28;;;;;;;16.17;3.30;;;;;;;9.40;100.00;101624.50;6033290;29;20059;-91
2022/05/08 01:21:38;;;;;;;16.90;4.32;;;;;;;9.19;100.00;101617.94;6027204;29;20068;-91
2022/05/08 01:24:40;;;;;;;16.23;4.03;;;;;;;9.06;100.00;101622.97;6008908;29;20479;-91
2022/05/08 01:27:42;;;;;;;9.60;3.50;;;;;;;8.93;100.00;101620.22;6030968;29;20053;-91
2022/05/08 01:30:46;;;;;;;12.90;3.33;;;;;;;8.76;100.00;101628.88;6032732;29;20710;-91
2022/05/08 01:33:47;;;;;;;17.25;4.22;;;;;;;9.02;100.00;101634.41;6011295;29;20073;-91
2022/05/08 01:36:49;;;;;;;13.82;3.88;;;;;;;8.80;100.00;101634.72;6041049;29;20072;-91
2022/05/08 01:39:51;;;;;;;15.60;4.05;;;;;;;8.76;100.00;101639.19;6019548;29;20065;-91
2022/05/08 01:42:53;;;;;;;12.02;4.05;;;;;;;8.58;100.00;101637.59;6020249;29;20049;-91
2022/05/08 01:45:56;;;;;;;13.45;4.00;;;;;;;8.58;100.00;101640.19;6031434;29;20841;-91
2022/05/08 01:48:58;;;;;;;12.13;4.00;;;;;;;8.51;100.00;101644.00;6026672;29;20222;-91
2022/05/08 01:52:00;;;;;;;17.13;3.95;;;;;;;8.43;100.00;101643.56;6032972;29;20369;-91
2022/05/08 01:55:02;;;;;;;13.45;4.13;;;;;;;8.34;100.00;101644.84;6019486;29;20108;-91
2022/05/08 01:58:04;;;;;;;16.15;3.85;;;;;;;8.26;100.00;101650.38;6032304;29;20491;-91
2022/05/08 02:01:08;;;;;;;19.65;4.43;;;;;;;8.43;100.00;101652.13;6016571;29;20049;-91
2022/05/08 02:04:15;;;;;;;17.75;4.03;;;;;;;8.49;100.00;101648.41;6031046;29;20053;-91
2022/05/08 02:07:17;;;;;;;13.88;3.85;;;;;;;8.40;100.00;101653.13;6042730;29;20662;-91
2022/05/08 02:10:19;;;;;;;16.63;4.78;;;;;;;8.29;100.00;101651.97;6016729;29;20409;-89
2022/05/08 02:13:20;;;;;;;12.48;4.32;;;;;;;8.06;100.00;101650.56;6038078;29;20045;-91
2022/05/08 02:16:22;;;;;;;11.43;3.95;;;;;;;8.06;100.00;101653.97;6007350;29;20057;-91
2022/05/08 02:19:24;;;;;;;14.68;4.78;;;;;;;8.03;100.00;101654.13;6036152;29;20061;-91
2022/05/08 02:22:26;;;;;;;20.10;5.88;;;;;;;8.06;100.00;101661.72;6035946;29;20033;-91
2022/05/08 02:25:30;;;;;;;13.57;3.70;;;;;;;8.06;100.00;101659.13;6040403;29;20045;-91
2022/05/08 02:28:32;;;;;;;20.65;4.70;;;;;;;7.93;100.00;101658.09;6020302;29;20041;-91
2022/05/08 02:31:34;;;;;;;12.50;4.72;;;;;;;7.95;100.00;101654.53;6033830;29;20129;-90
2022/05/08 02:34:35;;;;;;;11.82;3.83;;;;;;;7.85;100.00;101658.47;6037878;29;20053;-91
2022/05/08 02:37:38;;;;;;;15.63;4.60;;;;;;;7.91;100.00;101655.56;6036916;29;20502;-91
2022/05/08 02:40:40;;;;;;;13.13;3.58;;;;;;;7.88;100.00;101650.56;6036760;29;20041;-91
2022/05/08 02:43:42;;;;;;;13.73;3.85;;;;;;;7.84;100.00;101664.50;6019881;29;20057;-91
2022/05/08 02:46:44;;;;;;;14.52;4.38;;;;;;;7.85;100.00;101670.50;6041721;29;20059;-90
2022/05/08 02:49:45;;;;;;;10.57;4.22;;;;;;;7.80;100.00;101670.75;6040063;29;20045;-90
2022/05/08 02:52:47;;;;;;;12.23;4.20;;;;;;;7.70;100.00;101662.63;6038951;29;20559;-90
2022/05/08 02:59:10;;;;;;;12.30;3.78;;;;;;;7.55;100.00;101676.22;6015501;29;20992;-91
2022/05/08 03:02:12;;;;;;;17.08;4.55;;;;;;;7.56;100.00;101670.19;6040751;29;21065;-91
2022/05/08 03:05:16;;;;;;;17.40;4.30;;;;;;;7.50;100.00;101670.47;6041098;29;20400;-90
2022/05/08 03:08:19;;;;;;;15.35;3.70;;;;;;;7.48;100.00;101667.97;6041636;29;20392;-91
2022/05/08 03:11:27;;;;;;;10.48;3.83;;;;;;;7.52;100.00;101663.50;6032721;29;20056;-91
2022/05/08 03:14:28;;;;;;;18.98;5.38;;;;;;;7.47;100.00;101665.47;5994786;29;20059;-91
2022/05/08 03:17:31;;;;;;;19.67;4.30;;;;;;;7.47;100.00;101663.72;6043180;29;20492;-90
2022/05/08 03:20:33;;;;;;;13.73;3.83;;;;;;;7.47;100.00;101670.63;6039557;29;20052;-91
2022/05/08 03:23:35;;;;;;;15.38;5.07;;;;;;;7.55;100.00;101669.34;6034621;29;20048;-91
2022/05/08 03:26:37;;;;;;;14.35;3.97;;;;;;;7.38;100.00;101673.63;6032442;29;20400;-91
2022/05/08 03:29:39;;;;;;;12.20;3.90;;;;;;;7.36;100.00;101684.00;6025398;29;20049;-91
2022/05/08 03:32:40;;;;;;;13.57;4.47;;;;;;;7.37;100.00;101683.09;6031484;29;20579;-90
2022/05/08 03:35:43;;;;;;;13.00;3.42;;;;;;;7.31;100.00;101680.81;6042839;29;20542;-91
2022/05/08 03:38:47;;;;;;;12.20;4.47;;;;;;;7.35;100.00;101677.16;6037368;29;20124;-91
2022/05/08 03:41:49;;;;;;;14.27;3.75;;;;;;;7.38;100.00;101681.34;6025492;29;20052;-91
2022/05/08 03:44:54;;;;;;;15.13;3.47;;;;;;;7.40;100.00;101685.50;6040368;29;20075;-90
2022/05/08 03:47:56;;;;;;;13.65;4.55;;;;;;;7.29;100.00;101682.63;6021779;29;20061;-91
2022/05/08 03:50:58;;;;;;;16.83;4.13;;;;;;;7.16;100.00;101679.78;6037519;29;20092;-91
2022/05/08 03:54:00;;;;;;;15.45;4.53;;;;;;;7.28;100.00;101675.81;6032240;29;20052;-91
2022/05/08 03:57:02;;;;;;;17.30;4.88;;;;;;;7.19;100.00;101679.63;6029475;29;20049;-91
2022/05/08 04:00:05;;;;;;;12.40;3.67;;;;;;;7.17;100.00;101672.88;6020690;29;20049;-91
2022/05/08 04:03:13;;;;;;;15.10;4.30;;;;;;;7.08;100.00;101679.28;6037249;29;20412;-91
2022/05/08 04:06:15;;;;;;;15.25;4.35;;;;;;;7.12;100.00;101675.66;6037024;29;20202;-91
2022/05/08 04:09:16;;;;;;;15.40;4.22;;;;;;;7.15;100.00;101669.53;6034062;29;20045;-91
2022/05/08 04:12:18;;;;;;;15.07;3.72;;;;;;;7.13;100.00;101674.78;6037986;29;20048;-92
2022/05/08 04:18:41;;;;;;;17.23;4.60;;;;;;;7.20;100.00;101670.16;6034121;29;20038;-91
2022/05/08 04:21:42;;;;;;;16.13;4.15;;;;;;;7.18;100.00;101679.69;6029016;29;20480;-91
2022/05/08 04:24:44;;;;;;;13.13;3.83;;;;;;;7.18;100.00;101672.84;6008170;29;20056;-91
2022/05/08 04:27:46;;;;;;;15.32;3.42;;;;;;;7.25;100.00;101681.09;6004933;29;20236;-90
2022/05/08 04:30:48;;;;;;;13.98;3.90;;;;;;;7.28;100.00;101686.94;6031639;29;20041;-90
2022/05/08 04:33:55;;;;;;;10.02;3.65;;;;;;;7.35;100.00;101690.06;6023921;29;20042;-91
2022/05/08 04:36:57;;;;;;;13.43;4.70;;;;;;;7.36;100.00;101690.91;6030485;29;20053;-91
2022/05/08 04:39:59;;;;;;;15.75;4.03;;;;;;;7.41;100.00;101702.66;6035943;29;20053;-90
2022/05/08 04:43:01;;;;;;;11.23;3.80;;;;;;;7.40;100.00;101705.28;6023990;29;20075;-91
2022/05/08 04:46:03;;;;;;;17.45;4.00;;;;;;;7.51;100.00;101709.03;6043033;29;20424;-91
2022/05/08 04:49:05;;;;;;;11.57;3.60;;;;;;;7.41;100.00;101706.97;6039900;29;20393;-90
2022/05/08 04:52:09;;;;;;;11.55;4.63;;;;;;;7.46;100.00;101705.84;6021388;29;20037;-91
2022/05/08 04:55:13;;;;;;;18.83;3.95;;;;;;;7.52;100.00;101718.44;6021604;29;20482;-91
2022/05/08 04:58:15;;;;;;;13.73;4.05;;;;;;;7.53;100.00;101725.28;6027900;29;20084;-91
2022/05/08 05:01:17;;;;;;;15.73;4.10;;;;;;;7.55;100.00;101726.03;6008401;29;20045;-91
2022/05/08 05:04:18;;;;;;;13.45;4.00;;;;;;;7.40;100.00;101726.72;6033859;29;20045;-90
2022/05/08 05:07:20;;;;;;;13.68;4.68;;;;;;;7.42;100.00;101724.09;6038443;29;20053;-91
2022/05/08 05:10:22;;;;;;;16.10;4.32;;;;;;;7.53;100.00;101737.31;5999207;29;20577;-90
2022/05/08 05:13:25;;;;;;;14.27;4.07;;;;;;;7.48;100.00;101736.72;6030476;29;21322;-91
2022/05/08 05:16:26;;;;;;;12.23;3.63;;;;;;;7.44;100.00;101742.91;6027798;29;20049;-90
2022/05/08 05:19:29;;;;;;;9.75;3.67;;;;;;;7.47;100.00;101740.16;6034894;29;20104;-91
2022/05/08 05:22:31;;;;;;;13.77;4.60;;;;;;;7.58;100.00;101748.25;6029692;29;20061;-91
2022/05/08 05:25:33;;;;;;;20.20;4.20;;;;;;;7.70;100.00;101745.09;6025860;29;20038;-90
2022/05/08 05:28:35;;;;;;;14.15;3.92;;;;;;;7.74;100.00;101740.63;6002561;29;20050;-91
2022/05/08 05:31:37;;;;;;;16.92;4.18;;;;;;;7.66;100.00;101747.88;6023885;29;20057;-91
2022/05/08 05:34:38;;;;;;;14.98;4.43;;;;;;;7.70;100.00;101757.13;6039783;29;20492;-91
2022/05/08 05:37:40;;;;;;;16.15;3.78;;;;;;;7.82;100.00;101759.13;6027002;29;20057;-91
2022/05/08 05:40:42;;;;;;;9.60;3.25;;;;;;;7.92;100.00;101756.94;6022905;29;20056;-91
2022/05/08 05:43:44;;;;;;;13.55;3.58;;;;;;;8.03;100.00;101756.44;6028104;29;20862;-91
2022/05/08 05:50:07;;;;;;;13.43;3.22;;;;;;;8.24;100.00;101763.13;6034184;29;20938;-91
2022/05/08 05:53:08;;;;;;;16.65;3.58;;;;;;;8.29;100.00;101766.31;6023156;29;20044;-90
2022/05/08 05:56:10;;;;;;;11.10;3.00;;;;;;;8.32;100.00;101773.06;6033670;29;20042;-91
2022/05/08 05:59:12;;;;;;;10.93;3.55;;;;;;;8.58;100.00;101771.81;6026614;29;20495;-92
2022/05/08 06:02:33;;;;;;;11.40;2.75;;;;;;;8.41;100.00;101776.03;6016873;29;20068;-91
2022/05/08 06:05:35;;;;;;;9.45;3.50;;;;;;;8.46;100.00;101775.00;6020710;29;20057;-92
2022/05/08 06:08:37;;;;;;;9.30;2.78;;;;;;;8.62;100.00;101768.13;6036091;29;20575;-91
2022/05/08 06:11:38;;;;;;;9.43;3.03;;;;;;;8.39;100.00;101770.13;6015728;29;20080;-91
2022/05/08 06:14:41;;;;;;;10.95;3.83;;;;;;;8.43;100.00;101780.31;6001229;29;21111;-92
2022/05/08 06:17:43;;;;;;;7.80;3.10;;;;;;;8.47;100.00;101784.41;6042420;29;20056;-91
2022/05/08 06:20:45;;;;;;;11.15;3.30;;;;;;;8.48;100.00;101779.16;6022691;29;20053;-91
2022/05/08 06:23:47;;;;;;;11.20;3.50;;;;;;;8.47;100.00;101785.25;6018865;29;20491;-91
2022/05/08 06:26:49;;;;;;;12.07;3.30;;;;;;;8.57;100.00;101776.13;6034576;29;20046;-91
2022/05/08 06:29:51;;;;;;;11.73;3.47;;;;;;;8.78;100.00;101775.94;6025235;29;20048;-92
2022/05/08 06:32:53;;;;;;;9.48;3.28;;;;;;;8.77;100.00;101772.53;6020007;29;20174;-91
2022/05/08 06:36:11;;;;;;;14.02;3.60;;;;;;;8.80;100.00;101771.53;6041742;29;20064;-91
2022/05/08 06:39:13;;;;;;;12.48;3.83;;;;;;;8.97;100.00;101773.25;6008849;29;20508;-91
2022/05/08 06:42:15;;;;;;;13.35;3.25;;;;;;;9.05;100.00;101766.75;6032075;29;20167;-91
2022/05/08 06:45:26;;;;;;;11.43;3.40;;;;;;;9.25;100.00;101768.28;6017822;29;20421;-92
2022/05/08 06:48:29;;;;;;;9.77;3.53;;;;;;;9.31;100.00;101763.72;6033116;29;20053;-91
2022/05/08 06:51:32;;;;;;;14.70;4.03;;;;;;;9.26;100.00;101767.34;6037247;29;20037;-90
2022/05/08 06:54:33;;;;;;;16.05;3.22;;;;;;;9.32;100.00;101770.56;6021867;29;20045;-92
2022/05/08 06:57:35;;;;;;;9.02;3.00;;;;;;;9.40;100.00;101766.63;6024525;29;20403;-91
2022/05/08 07:03:57;;;;;;;13.07;3.47;;;;;;;9.53;98.71;101773.72;6036967;29;20053;-91
2022/05/08 07:07:00;;;;;;;10.15;2.65;;;;;;;9.70;98.70;101779.63;6022712;29;20045;-91
2022/05/08 07:10:02;;;;;;;15.88;3.30;;;;;;;9.96;93.36;101776.50;6026710;29;20045;-91
2022/05/08 07:13:05;;;;;;;8.15;2.30;;;;;;;9.93;90.77;101780.09;6026555;29;20499;-91
2022/05/08 07:16:07;;;;;;;11.75;2.63;;;;;;;9.77;92.85;101779.31;6023977;29;20128;-91
2022/05/08 07:19:10;;;;;;;8.60;2.58;;;;;;;9.78;94.16;101775.78;6024464;29;20077;-91
2022/05/08 07:22:11;;;;;;;7.63;3.25;;;;;;;9.83;93.49;101790.13;6032090;29;20045;-91
2022/05/08 07:25:13;;;;;;;7.80;1.90;;;;;;;9.84;93.11;101780.63;6022604;29;20511;-91
2022/05/08 07:28:18;;;;;;;8.30;2.47;;;;;;;10.10;91.27;101777.41;6023685;29;20700;-91
2022/05/08 07:31:20;;;;;;;13.90;2.70;;;;;;;10.03;92.87;101781.25;6025840;29;20041;-91
2022/05/08 07:37:43;;;;;;;9.25;2.83;;;;;;;10.13;93.10;101772.03;6035768;29;20049;-92
2022/05/08 07:40:47;;;;;;;10.95;3.80;;;;;;;10.14;89.55;101780.66;6021740;29;20072;-90
2022/05/08 07:43:49;;;;;;;10.38;2.60;;;;;;;10.08;89.21;101778.41;6023042;29;20135;-91
2022/05/08 07:46:51;;;;;;;8.75;2.47;;;;;;;10.07;90.54;101784.50;6033827;29;20437;-91
2022/05/08 07:49:53;;;;;;;12.82;2.65;;;;;;;10.16;89.51;101784.00;6035415;29;20140;-91
2022/05/08 07:52:55;;;;;;;8.05;2.28;;;;;;;10.25;85.37;101783.44;6027678;29;20320;-95
2022/05/08 07:55:58;;;;;;;6.00;3.30;;;;;;;10.20;86.43;101777.72;6017583;29;20045;-94
2022/05/08 07:59:00;;;;;;;13.23;4.10;;;;;;;10.27;87.94;101776.44;6028481;29;20051;-94
2022/05/08 08:02:03;;;;;;;9.05;2.85;;;;;;;10.24;88.45;101786.97;6035709;29;20049;-96
2022/05/08 08:05:05;;;;;;;7.43;2.33;;;;;;;10.31;88.13;101777.13;6031491;29;20049;-96
2022/05/08 08:08:08;;;;;;;10.05;2.25;;;;;;;10.38;87.17;101787.97;6036412;29;20075;-96
2022/05/08 08:11:11;;;;;;;6.38;2.10;;;;;;;10.50;85.26;101779.47;6041984;29;20059;-95
2022/05/08 08:14:13;;;;;;;4.88;2.10;;;;;;;10.58;85.44;101790.22;6035949;29;20041;-94
2022/05/08 08:17:35;;;;;;;6.65;2.00;;;;;;;10.61;83.79;101790.06;6027029;29;20050;-93
2022/05/08 08:20:37;;;;;;;7.55;1.95;;;;;;;10.60;77.97;101792.72;6029379;29;20053;-94
2022/05/08 08:23:41;;;;;;;7.57;2.17;;;;;;;10.66;79.63;101792.38;6026522;29;20105;-93
2022/05/08 08:26:42;;;;;;;5.43;2.60;;;;;;;10.71;81.09;101792.94;6031808;29;20284;-93
2022/05/08 08:29:45;;;;;;;10.05;2.63;;;;;;;10.81;81.43;101798.38;6026157;29;20041;-94
2022/05/08 08:32:47;;;;;;;6.47;2.33;;;;;;;10.84;81.25;101799.03;6030955;29;20593;-96
2022/05/08 08:35:50;;;;;;;9.43;2.28;;;;;;;10.95;83.18;101794.03;6023986;29;20045;-93
2022/05/08 08:38:53;;;;;;;5.57;1.90;;;;;;;11.05;82.91;101801.25;6028183;29;20536;-93
2022/05/08 08:42:18;;;;;;;8.25;2.13;;;;;;;11.12;82.15;101805.97;6018370;29;20033;-95
2022/05/08 08:48:47;;;;;;;9.35;2.05;;;;;;;11.48;81.04;101803.81;6031976;29;20688;-94
2022/05/08 08:51:50;;;;;;;11.38;2.33;;;;;;;11.36;82.05;101808.84;6026006;29;20069;-92
2022/05/08 08:54:52;;;;;;;8.38;2.10;;;;;;;11.38;82.45;101803.56;6029170;29;20049;-94
2022/05/08 08:57:54;;;;;;;8.10;1.88;;;;;;;11.46;80.69;101806.50;6022496;29;20033;-92
2022/05/08 09:00:56;;;;;;;7.47;1.85;;;;;;;11.47;81.12;101813.34;6028734;29;20041;-93
2022/05/08 09:04:00;;;;;;;7.35;2.05;;;;;;;11.65;78.85;101813.97;6030243;29;20516;-94
2022/05/08 09:07:04;;;;;;;6.65;2.10;;;;;;;11.63;78.41;101816.66;6034850;29;20045;-94
2022/05/08 09:10:06;;;;;;;11.23;2.45;;;;;;;11.59;80.41;101819.53;6031066;29;20455;-95
2022/05/08 09:13:11;;;;;;;7.75;2.60;;;;;;;11.71;78.67;101818.78;6026795;29;20509;-89
2022/05/08 09:16:12;;;;;;;6.55;2.45;;;;;;;11.81;74.15;101827.63;6022241;29;20086;-89
2022/05/08 09:19:14;;;;;;;8.27;2.22;;;;;;;11.92;78.28;101818.38;6022730;29;20049;-90
2022/05/08 09:22:18;;;;;;;9.80;2.42;;;;;;;11.91;77.84;101819.31;6030909;29;20148;-89
2022/05/08 09:25:20;;;;;;;7.75;1.90;;;;;;;12.01;78.31;101815.19;6024690;29;20612;-89
2022/05/08 09:28:40;;;;;;;11.35;2.63;;;;;;;12.11;75.88;101818.03;6039452;29;20057;-89
2022/05/08 09:31:43;;;;;;;7.18;2.00;;;;;;;12.23;74.99;101815.47;6011311;29;20678;-89
2022/05/08 09:34:58;;;;;;;9.23;1.60;;;;;;;12.35;73.59;101813.00;6038074;29;20040;-90
2022/05/08 09:38:00;;;;;;;10.07;2.05;;;;;;;12.53;73.12;101814.38;6037203;29;20152;-89
2022/05/08 09:41:08;;;;;;;7.00;2.00;;;;;;;12.67;73.41;101816.88;6032124;29;20044;-90
2022/05/08 09:44:18;;;;;;;10.30;3.08;;;;;;;12.66;74.64;101811.78;6039744;29;20503;-89
2022/05/08 09:47:39;;;;;;;9.25;2.30;;;;;;;12.77;75.59;101808.44;6041926;29;20643;-90
2022/05/08 09:50:41;;;;;;;6.78;1.83;;;;;;;12.79;75.40;101815.22;6037957;29;20136;-90
2022/05/08 09:53:48;;;;;;;6.55;1.80;;;;;;;12.85;74.34;101808.78;6031360;29;20041;-89
2022/05/08 09:56:50;;;;;;;7.00;1.85;;;;;;;12.95;72.33;101814.19;6029873;29;20045;-90
2022/05/08 09:59:52;;;;;;;8.57;2.10;;;;;;;12.83;71.22;101818.44;6000108;29;20563;-90
2022/05/08 10:02:54;;;;;;;6.15;2.13;;;;;;;12.93;69.41;101802.13;6024213;29;20049;-90
2022/05/08 10:06:06;;;;;;;5.60;1.70;;;;;;;13.03;70.69;101802.31;6029854;29;20045;-91
2022/05/08 10:15:52;;;;;;;8.48;2.30;;;;;;;13.35;69.79;101799.28;6027786;29;20055;-91
2022/05/08 10:19:24;;;;;;;9.63;2.35;;;;;;;13.58;67.37;101793.28;6029607;29;20042;-90
2022/05/08 10:22:45;;;;;;;5.85;1.88;;;;;;;13.68;66.00;101800.44;6021473;29;20038;-91
2022/05/08 10:26:17;;;;;;;6.25;1.90;;;;;;;13.69;69.69;101800.34;6031407;29;20125;-90
2022/05/08 10:29:19;;;;;;;8.00;2.97;;;;;;;13.76;66.50;101796.34;6041478;29;20122;-91
2022/05/08 10:32:32;;;;;;;6.32;2.05;;;;;;;13.80;65.74;101802.16;6038017;29;20504;-92
2022/05/08 10:35:35;;;;;;;4.35;1.70;;;;;;;13.78;64.26;101796.22;6038914;29;20056;-90
2022/05/08 10:38:36;;;;;;;6.40;2.15;;;;;;;13.84;66.63;101790.59;6024010;29;20045;-90
2022/05/08 10:41:45;;;;;;;6.68;1.95;;;;;;;14.03;66.65;101784.03;6044024;29;20057;-90
2022/05/08 10:44:46;;;;;;;12.65;2.15;;;;;;;14.28;65.69;101785.66;6036726;29;21462;-88
2022/05/08 10:47:52;;;;;;;9.35;1.98;;;;;;;14.40;64.85;101779.53;6044894;29;20081;-91
2022/05/08 10:50:59;;;;;;;5.57;2.15;;;;;;;14.44;67.51;101787.00;6019924;29;20057;-90
2022/05/08 10:54:15;;;;;;;6.05;1.92;;;;;;;14.58;66.34;101786.00;6020103;29;20077;-91
2022/05/08 10:57:17;;;;;;;7.65;2.28;;;;;;;14.58;66.33;101785.13;6042478;29;20377;-90
2022/05/08 11:00:28;;;;;;;6.53;2.20;;;;;;;14.58;66.63;101792.97;6036031;29;20052;-89
2022/05/08 11:03:31;;;;;;;10.10;2.50;;;;;;;14.58;68.24;101790.34;6036915;29;20042;-90
2022/05/08 11:06:33;;;;;;;5.97;1.92;;;;;;;14.76;61.39;101791.59;6037885;29;20093;-89
2022/05/08 11:09:37;;;;;;;6.53;2.17;;;;;;;14.78;62.07;101792.28;6023312;29;20049;-89
2022/05/08 11:13:00;;;;;;;5.63;2.25;;;;;;;14.97;59.97;101783.88;6039613;29;20530;-89
2022/05/08 11:16:01;;;;;;;8.63;2.25;;;;;;;15.15;59.10;101776.38;6034655;29;20231;-90
2022/05/08 11:19:05;;;;;;;9.57;2.72;;;;;;;15.28;57.82;101779.72;6019587;29;20817;-90
2022/05/08 11:22:07;;;;;;;9.35;4.53;;;;;;;15.50;54.11;101781.44;6037913;29;20053;-89
2022/05/08 11:25:15;;;;;;;5.15;2.63;;;;;;;15.55;53.28;101783.66;6043070;29;20055;-90
2022/05/08 11:28:19;;;;;;;7.18;1.55;;;;;;;15.58;55.55;101780.84;6039659;29;20178;-91
2022/05/08 11:31:24;;;;;;;5.13;1.83;;;;;;;15.60;55.37;101780.69;6035900;29;20357;-90
2022/05/08 11:37:58;;;;;;;;;;;;;;;15.91;52.40;101785.13;6045498;29;20491;-90
2022/05/08 11:41:01;;;;;;;4.50;2.00;;;;;;;16.00;53.24;101780.97;6016777;29;20540;-90
2022/05/08 11:44:15;;;;;;;4.82;2.25;;;;;;;16.04;53.65;101774.50;6034721;29;20077;-89
2022/05/08 11:47:19;;;;;;;7.95;2.28;;;;;;;16.21;50.26;101777.53;6034401;29;20048;-89
2022/05/08 11:50:24;;;;;;;3.13;1.73;;;;;;;16.27;48.55;101777.00;6018961;29;20041;-91
2022/05/08 11:53:25;;;;;;;7.15;2.00;;;;;;;16.14;50.49;101769.34;6042247;29;20495;-90
2022/05/08 11:56:34;;;;;;;6.50;2.70;;;;;;;16.30;48.41;101768.94;6039257;29;20057;-89
2022/05/08 11:59:36;;;;;;;5.05;1.80;;;;;;;16.55;48.94;101775.53;6035900;29;20499;-89
2022/05/08 12:02:46;;;;;;;5.10;1.40;;;;;;;16.44;43.15;101767.75;6013044;29;20096;-88
2022/05/08 12:05:48;;;;;;;5.75;2.00;;;;;;;16.70;44.31;101768.19;6035911;29;20055;-90
2022/05/08 12:08:51;;;;;;;8.15;2.05;;;;;;;16.93;45.23;101759.22;6034936;29;20056;-90
2022/05/08 12:11:53;;;;;;;4.85;1.88;;;;;;;17.13;45.59;101761.91;6042360;29;20049;-91
2022/05/08 12:14:59;;;;;;;5.50;1.70;;;;;;;17.22;42.21;101754.06;6028549;29;20491;-91
2022/05/08 12:18:03;;;;;;;3.28;1.70;;;;;;;17.24;44.65;101751.28;6016002;29;20064;-91
2022/05/08 12:21:27;;;;;;;6.18;2.00;;;;;;;17.37;42.88;101757.13;6011388;29;20048;-91
2022/05/08 12:24:29;;;;;;;6.40;1.80;;;;;;;17.42;39.06;101752.31;6028115;29;20049;-91
2022/05/08 12:27:31;;;;;;;7.63;1.85;;;;;;;17.54;41.58;101741.69;6028819;29;20488;-91
2022/05/08 12:30:33;;;;;;;3.08;1.27;;;;;;;17.78;38.92;101746.53;6024437;29;20042;-89
2022/05/08 12:33:35;;;;;;;2.85;1.20;;;;;;;17.93;41.21;101736.50;6037340;29;20048;-89
2022/05/08 12:36:40;;;;;;;5.80;2.10;;;;;;;17.91;40.34;101734.00;6042489;29;20810;-90
2022/05/08 12:39:44;;;;;;;5.40;1.58;;;;;;;18.16;40.68;101744.88;6033674;29;20521;-91
2022/05/08 12:42:46;;;;;;;6.07;1.70;;;;;;;18.40;40.45;101729.50;6021761;29;20052;-91
2022/05/08 12:45:49;;;;;;;5.97;1.63;;;;;;;18.57;41.59;101734.97;6018139;29;20053;-95
2022/05/08 12:48:50;;;;;;;3.40;1.60;;;;;;;18.65;38.10;101733.28;6025398;29;20061;-90
2022/05/08 12:51:52;;;;;;;4.45;2.03;;;;;;;18.64;35.74;101739.50;6036294;29;20073;-93
2022/05/08 12:54:54;;;;;;;5.43;1.50;;;;;;;18.68;38.33;101746.13;6028976;29;20510;-91
2022/05/08 13:01:19;;;;;;;4.75;1.70;;;;;;;18.68;36.04;101725.13;6031653;29;20525;-89
2022/05/08 13:04:23;;;;;;;6.32;1.77;;;;;;;18.79;35.73;101720.69;6013707;29;20140;-89
2022/05/08 13:07:25;;;;;;;4.32;1.70;;;;;;;19.04;36.90;101716.56;6026247;29;20205;-91
2022/05/08 13:10:27;;;;;;;2.92;1.33;;;;;;;19.36;37.64;101710.81;6026678;29;20041;-91
2022/05/08 13:13:37;;;;;;;4.20;1.52;;;;;;;19.75;36.74;101723.63;6006012;29;20045;-91
2022/05/08 13:16:39;;;;;;;3.88;1.85;;;;;;;19.74;34.27;101712.31;6026587;29;20053;-90
2022/05/08 13:19:40;;;;;;;4.07;1.60;;;;;;;19.87;34.17;101709.28;6030487;29;20053;-90
2022/05/08 13:22:43;;;;;;;4.63;1.60;;;;;;;19.80;32.97;101716.16;6034929;29;20049;-90
2022/05/08 13:25:45;;;;;;;5.00;2.38;;;;;;;19.82;33.70;101710.72;6011124;29;20055;-93
2022/05/08 13:28:47;;;;;;;3.45;1.63;;;;;;;19.78;32.68;101715.47;6027883;29;20084;-89
2022/05/08 13:31:51;;;;;;;6.93;1.98;;;;;;;19.83;33.73;101702.69;6028191;29;20053;-92
2022/05/08 13:34:53;;;;;;;5.93;1.73;;;;;;;20.05;32.59;101706.63;6028435;29;20045;-91
2022/05/08 13:37:55;;;;;;;5.30;1.92;;;;;;;20.22;37.28;101697.88;6033148;29;20431;-92
2022/05/08 13:41:00;;;;;;;2.42;1.40;;;;;;;20.52;34.64;101692.25;6026937;29;20129;-92
2022/05/08 13:44:02;;;;;;;3.92;1.70;;;;;;;20.52;33.62;101702.75;6015090;29;20072;-93
2022/05/08 13:47:06;;;;;;;5.38;1.40;;;;;;;20.43;30.47;101704.53;6030601;29;20049;-90
2022/05/08 13:50:09;;;;;;;3.83;1.60;;;;;;;20.18;32.18;101695.69;6017096;29;20052;-91
2022/05/08 13:53:12;;;;;;;2.92;1.48;;;;;;;20.26;33.06;101687.84;6014144;29;20049;-91
2022/05/08 13:56:14;;;;;;;3.00;1.48;;;;;;;20.60;31.21;101687.06;6029114;29;20171;-91
2022/05/08 13:59:16;;;;;;;4.35;1.75;;;;;;;20.86;30.39;101684.34;6028460;29;20116;-90
2022/05/08 14:02:18;;;;;;;6.03;1.70;;;;;;;20.77;30.09;101690.56;6027033;29;20521;-91
2022/05/08 14:05:23;;;;;;;5.72;1.90;;;;;;;20.76;30.39;101683.66;6034574;29;20041;-91
2022/05/08 14:08:25;;;;;;;6.35;2.08;;;;;;;20.85;29.14;101678.25;6031321;29;20102;-92
2022/05/08 14:11:27;;;;;;;4.50;1.42;;;;;;;21.05;28.34;101680.63;6029360;29;20045;-93
2022/05/08 14:14:31;;;;;;;5.40;1.92;;;;;;;21.03;29.07;101670.22;6025331;29;20041;-91
2022/05/08 14:17:35;;;;;;;3.47;1.58;;;;;;;21.23;29.07;101668.13;6029634;29;20084;-92
2022/05/08 14:20:38;;;;;;;7.53;2.28;;;;;;;21.12;28.31;101665.81;6016562;29;20075;-91
2022/05/08 14:23:40;;;;;;;2.65;1.30;;;;;;;21.19;29.82;101664.19;6026545;29;20045;-91
2022/05/08 14:26:42;;;;;;;4.80;1.75;;;;;;;21.54;29.88;101661.41;6026945;29;20056;-92
2022/05/08 14:29:44;;;;;;;4.68;1.67;;;;;;;21.49;29.39;101664.56;6026035;29;20170;-92
2022/05/08 14:36:07;;;;;;;7.25;1.70;;;;;;;21.81;27.69;101661.03;6029164;29;20041;-92
2022/05/08 14:39:09;;;;;;;6.38;1.70;;;;;;;21.76;30.17;101655.44;6031260;29;20045;-93
2022/05/08 14:42:11;;;;;;;4.07;1.40;;;;;;;21.84;29.05;101660.72;6016007;29;20049;-92
2022/05/08 14:45:12;;;;;;;5.68;2.33;;;;;;;21.99;27.25;101655.59;6029409;29;20060;-92
2022/05/08 14:48:15;;;;;;;3.97;1.50;;;;;;;22.03;27.27;101666.63;6027217;29;20543;-91